TimeAKDT,TemperatureF,Dew PointF,Humidity,Sea Level PressureIn,VisibilityMPH,Wind Direction,Wind SpeedMPH,Gust SpeedMPH,PrecipitationIn,Events,Conditions,WindDirDegrees,DateUTC
12:54 AM,19.0,17.1,92,30.12,10.0,North,5.8,-,N/A,,Clear,10,2012-10-27 08:54:00
1:54 AM,17.1,15.1,92,30.11,10.0,North,3.5,-,N/A,,Clear,10,2012-10-27 09:54:00
2:54 AM,16.0,12.9,88,30.10,10.0,North,4.6,-,N/A,,Clear,360,2012-10-27 10:54:00
3:54 AM,16.0,14.0,92,30.10,10.0,North,4.6,-,N/A,,Clear,10,2012-10-27 11:54:00
4:54 AM,14.0,12.0,92,30.09,10.0,North,4.6,-,N/A,,Clear,10,2012-10-27 12:54:00
5:54 AM,14.0,12.0,92,30.07,10.0,North,6.9,-,N/A,,Clear,10,2012-10-27 13:54:00
6:54 AM,14.0,12.0,92,30.07,10.0,Calm,Calm,-,N/A,,Clear,0,2012-10-27 14:54:00
7:54 AM,16.0,12.9,88,30.06,10.0,North,9.2,-,N/A,,Clear,350,2012-10-27 15:54:00
8:54 AM,10.9,8.1,88,30.05,10.0,Calm,Calm,-,N/A,,Clear,0,2012-10-27 16:54:00
9:54 AM,16.0,12.9,88,30.05,10.0,North,5.8,-,N/A,,Clear,360,2012-10-27 17:54:00
10:54 AM,19.0,17.1,92,30.05,10.0,Calm,Calm,-,N/A,,Clear,0,2012-10-27 18:54:00
11:54 AM,23.0,19.0,85,30.05,10.0,North,3.5,-,N/A,,Clear,10,2012-10-27 19:54:00
12:54 PM,27.0,21.9,81,30.04,10.0,North,5.8,-,N/A,,Clear,360,2012-10-27 20:54:00
1:54 PM,28.0,21.0,75,30.04,10.0,North,8.1,-,N/A,,Clear,10,2012-10-27 21:54:00
2:54 PM,30.9,24.1,76,30.03,10.0,North,10.4,-,N/A,,Clear,350,2012-10-27 22:54:00
3:54 PM,32.0,21.9,66,30.02,10.0,North,9.2,-,N/A,,Clear,360,2012-10-27 23:54:00
4:54 PM,32.0,21.9,66,30.01,10.0,North,11.5,-,N/A,,Clear,10,2012-10-28 00:54:00
5:54 PM,30.9,21.0,67,30.01,10.0,North,10.4,-,N/A,,Clear,360,2012-10-28 01:54:00
6:54 PM,28.9,19.9,69,30.00,10.0,North,10.4,-,N/A,,Clear,360,2012-10-28 02:54:00
7:54 PM,26.1,18.0,71,30.00,10.0,North,10.4,-,N/A,,Clear,360,2012-10-28 03:54:00
8:54 PM,25.0,17.1,72,30.00,10.0,North,13.8,-,N/A,,Clear,360,2012-10-28 04:54:00
9:54 PM,23.0,16.0,74,30.00,10.0,North,11.5,-,N/A,,Clear,360,2012-10-28 05:54:00
10:54 PM,23.0,16.0,74,30.00,10.0,North,6.9,-,N/A,,Clear,10,2012-10-28 06:54:00
11:54 PM,19.9,15.1,81,30.01,10.0,North,8.1,-,N/A,,Clear,350,2012-10-28 07:54:00